Time;durP1;ratioP1;P1;durP2;ratioP2;P2;SDS_P1;SDS_P2;PMS_P1;PMS_P2;Temp;Humidity;BMP_temperature;BMP_pressure;BME280_temperature;BME280_humidity;BME280_pressure;Samples;Min_cycle;Max_cycle;Signal;HPM_P1;HPM_P2
2021/03/07 00:00:49;;;;;;;;;;;-0.80;96.40;;;-2.81;69.89;96550.75;10263963;28;2014;-88
2021/03/07 00:05:51;;;;;;;;;;;-1.70;96.20;;;-2.77;69.87;96552.06;10287911;28;1624;-88
2021/03/07 00:10:54;;;;;;;;;;;-1.40;96.90;;;-2.75;70.34;96550.06;10277443;28;1996;-88
2021/03/07 00:15:57;;;;;;;;;;;-1.70;97.20;;;-2.84;71.06;96548.47;10269378;28;1854;-87
2021/03/07 00:21:03;;;;;;;;;;;-0.20;98.30;;;-2.95;71.97;96548.84;10273701;28;1965;-87
2021/03/07 00:26:06;;;;;;;;;;;-1.10;98.50;;;-2.98;72.04;96546.56;10290828;28;1956;-88
2021/03/07 00:31:08;;;;;;;;;;;-0.10;99.50;;;-2.75;71.41;96541.34;10285277;28;1967;-88
2021/03/07 00:36:11;;;;;;;;;;;-1.30;99.40;;;-2.76;71.18;96540.53;10304344;28;1671;-88
2021/03/07 00:41:14;;;;;;;;;;;-0.40;99.50;;;-2.79;71.37;96548.78;10281372;28;2054;-88
2021/03/07 00:46:16;;;;;;;;;;;-1.80;99.00;;;-2.80;70.53;96544.53;10274608;28;2064;-87
2021/03/07 00:51:19;;;;;;;;;;;-1.80;98.60;;;-2.86;70.31;96537.31;10281403;28;2000;-87
2021/03/07 00:56:21;;;;;;;;;;;-0.60;98.90;;;-2.87;68.69;96534.81;10299746;28;1880;-88
2021/03/07 01:01:23;;;;;;;;;;;-1.80;97.30;;;-2.92;69.35;96538.00;10293190;28;1985;-88
2021/03/07 01:06:26;;;;;;;;;;;-0.80;97.90;;;-2.96;69.52;96531.41;10278141;28;1732;-87
2021/03/07 01:11:28;;;;;;;;;;;-0.20;98.40;;;-3.03;69.18;96522.56;10272808;28;1893;-86
2021/03/07 01:16:31;;;;;;;;;;;-0.20;98.30;;;-3.12;70.01;96519.13;10299637;28;1399;-88
2021/03/07 01:21:33;;;;;;;;;;;-2.10;97.70;;;-3.24;70.82;96510.00;10302390;28;2007;-88
2021/03/07 01:26:36;;;;;;;;;;;-0.60;98.90;;;-3.28;71.61;96500.78;10280359;28;2089;-87
2021/03/07 01:31:38;;;;;;;;;;;-2.00;99.00;;;-3.29;72.21;96499.16;10258615;28;1835;-89
2021/03/07 01:36:41;;;;;;;;;;;-1.70;99.80;;;-3.31;72.57;96491.44;10295701;28;2179;-88
2021/03/07 01:41:43;;;;;;;;;;;-0.20;99.90;;;-3.37;73.22;96481.63;10260789;28;2007;-87
2021/03/07 01:46:46;;;;;;;;;;;-2.40;99.90;;;-3.29;73.24;96484.22;10274997;28;2055;-88
2021/03/07 01:51:48;;;;;;;;;;;-2.20;99.90;;;-3.28;73.25;96474.50;10304433;28;2057;-88
2021/03/07 01:56:50;;;;;;;;;;;-1.20;99.90;;;-3.32;73.46;96470.56;10310018;28;1904;-90
2021/03/07 02:01:53;;;;;;;;;;;-0.10;99.90;;;-3.34;73.47;96465.47;10276138;28;2155;-87
2021/03/07 02:06:55;;;;;;;;;;;-2.30;99.90;;;-3.47;74.16;96464.38;10294156;28;2083;-87
2021/03/07 02:11:57;;;;;;;;;;;-2.40;99.90;;;-3.40;74.20;96455.66;10269661;28;2012;-87
2021/03/07 02:16:59;;;;;;;;;;;-1.80;99.90;;;-3.40;73.93;96460.91;10299150;28;1954;-88
2021/03/07 02:22:04;;;;;;;;;;;-1.60;99.90;;;-3.53;74.77;96450.09;10288854;28;2087;-87
2021/03/07 02:27:06;;;;;;;;;;;0.10;99.90;;;-3.48;74.74;96462.75;10294884;28;2132;-87
2021/03/07 02:32:08;;;;;;;;;;;-0.30;99.90;;;-3.48;74.83;96463.56;10281957;28;1838;-88
2021/03/07 02:37:11;;;;;;;;;;;-1.20;99.90;;;-3.57;75.21;96454.06;10298270;28;1887;-88
2021/03/07 02:42:14;;;;;;;;;;;-2.40;99.90;;;-3.57;75.96;96454.88;10308315;28;2079;-86
2021/03/07 02:47:16;;;;;;;;;;;-1.40;99.90;;;-3.65;75.60;96440.94;10300608;28;2030;-86
2021/03/07 02:52:20;;;;;;;;;;;-1.00;99.90;;;-3.62;76.45;96451.13;10311471;28;1817;-87
2021/03/07 02:57:22;;;;;;;;;;;-2.00;99.90;;;-3.56;76.06;96437.31;10311939;28;1899;-88
2021/03/07 03:02:25;;;;;;;;;;;-0.60;99.90;;;-3.60;75.92;96428.13;10294829;28;2011;-88
2021/03/07 03:07:28;;;;;;;;;;;-1.80;99.90;;;-3.61;76.34;96421.22;10326261;28;1305;-90
2021/03/07 03:12:30;;;;;;;;;;;-0.80;99.90;;;-3.64;76.48;96416.31;10294106;28;2174;-85
2021/03/07 03:17:32;;;;;;;;;;;-2.50;99.90;;;-3.63;75.76;96415.31;10278311;28;1962;-86
2021/03/07 03:22:35;;;;;;;;;;;-2.60;99.90;;;-3.61;75.38;96416.78;10273371;28;1906;-86
2021/03/07 03:27:38;;;;;;;;;;;-0.60;99.90;;;-3.61;75.96;96405.47;10276158;28;1423;-87
2021/03/07 03:32:40;;;;;;;;;;;-2.70;99.90;;;-3.60;75.61;96401.84;10291586;28;2099;-87
2021/03/07 03:37:43;;;;;;;;;;;-0.70;99.90;;;-3.62;75.71;96401.22;10284122;28;2245;-88
2021/03/07 03:42:45;;;;;;;;;;;-1.90;99.90;;;-3.71;76.12;96399.56;10279295;28;2121;-87
2021/03/07 03:47:47;;;;;;;;;;;-0.60;99.90;;;-3.72;76.73;96392.69;10277937;28;2177;-88
2021/03/07 03:52:49;;;;;;;;;;;-1.80;99.90;;;-3.82;77.07;96391.09;10276903;28;2113;-88
2021/03/07 03:57:52;;;;;;;;;;;-2.70;99.90;;;-3.71;76.20;96394.31;10283568;28;1895;-88
2021/03/07 04:02:57;;;;;;;;;;;-2.70;99.90;;;-3.81;76.88;96392.72;10300090;28;2188;-88
2021/03/07 04:08:00;;;;;;;;;;;-0.80;99.90;;;-3.81;77.42;96400.59;10303429;28;2086;-91
2021/03/07 04:13:05;;;;;;;;;;;-0.90;99.90;;;-3.91;77.77;96388.63;10300575;28;2271;-86
2021/03/07 04:18:10;;;;;;;;;;;-0.90;99.90;;;-3.88;78.06;96394.41;10290290;28;1983;-87
2021/03/07 04:23:13;;;;;;;;;;;-1.80;99.90;;;-3.97;79.02;96392.75;10276113;28;1575;-85
2021/03/07 04:28:17;;;;;;;;;;;-2.80;99.90;;;-4.00;79.59;96397.53;10272041;28;1636;-84
2021/03/07 04:33:20;;;;;;;;;;;-1.10;99.90;;;-4.09;78.28;96399.34;10268651;28;2094;-86
2021/03/07 04:38:23;;;;;;;;;;;-0.20;99.90;;;-4.18;79.24;96395.09;10276606;28;2282;-88
2021/03/07 04:43:25;;;;;;;;;;;-1.20;99.90;;;-4.03;79.40;96385.53;10299000;28;2209;-89
2021/03/07 04:48:30;;;;;;;;;;;-1.80;99.90;;;-4.02;79.71;96381.94;10310665;28;2005;-87
2021/03/07 04:53:32;;;;;;;;;;;-1.80;99.90;;;-4.00;79.26;96376.53;10313909;28;1907;-89
2021/03/07 04:58:35;;;;;;;;;;;-1.70;99.90;;;-3.93;79.22;96380.94;10310971;28;1887;-86
2021/03/07 05:03:37;;;;;;;;;;;-1.60;99.90;;;-3.96;79.38;96383.88;10248952;28;2254;-86
2021/03/07 05:08:40;;;;;;;;;;;-0.80;99.90;;;-3.90;79.90;96364.00;10277360;28;1513;-87
2021/03/07 05:13:42;;;;;;;;;;;-2.20;99.90;;;-3.77;78.57;96363.47;10273951;28;2070;-87
2021/03/07 05:18:44;;;;;;;;;;;-1.90;99.90;;;-3.76;79.15;96355.41;10273964;28;2068;-86
2021/03/07 05:23:47;;;;;;;;;;;-1.90;99.90;;;-3.82;78.68;96351.69;10254273;28;4118;-85
2021/03/07 05:28:49;;;;;;;;;;;-2.00;99.90;;;-3.82;79.36;96356.09;10272494;28;2076;-85
2021/03/07 05:33:51;;;;;;;;;;;-2.60;99.90;;;-3.77;79.27;96350.34;10273295;28;2078;-84
2021/03/07 05:38:54;;;;;;;;;;;-1.00;99.90;;;-3.80;79.30;96354.13;10281574;28;1985;-85
2021/03/07 05:43:56;;;;;;;;;;;-2.60;99.90;;;-3.74;79.86;96358.72;10285994;28;2043;-88
2021/03/07 05:49:01;;;;;;;;;;;-1.90;99.90;;;-3.76;79.98;96354.59;10287236;28;2173;-86
2021/03/07 05:54:08;;;;;;;;;;;-2.60;99.90;;;-3.74;80.63;96357.91;10274730;28;2327;-87
2021/03/07 05:59:15;;;;;;;;;;;-0.50;99.90;;;-3.68;80.62;96352.78;10275746;28;2116;-87
2021/03/07 06:04:17;;;;;;;;;;;-1.70;99.90;;;-3.71;79.82;96347.84;10278405;28;2299;-89
2021/03/07 06:09:22;;;;;;;;;;;-1.50;99.90;;;-3.67;79.63;96353.59;10281296;28;1532;-87
2021/03/07 06:14:25;;;;;;;;;;;-2.70;99.90;;;-3.63;79.70;96345.19;10303826;28;2021;-90
2021/03/07 06:19:30;;;;;;;;;;;-0.60;99.90;;;-3.58;79.50;96347.31;10313671;28;1964;-91
2021/03/07 06:24:34;;;;;;;;;;;-0.20;99.90;;;-3.29;78.55;96339.59;10307936;28;1735;-88
2021/03/07 06:29:37;;;;;;;;;;;-1.90;99.90;;;-2.98;76.75;96322.97;10304787;28;2079;-88
2021/03/07 06:34:44;;;;;;;;;;;-2.10;99.90;;;-2.93;77.09;96320.59;10276581;28;2042;-84
2021/03/07 06:39:46;;;;;;;;;;;-1.90;99.90;;;-2.76;76.81;96316.88;10285266;28;2166;-87
2021/03/07 06:44:56;;;;;;;;;;;-0.40;99.90;;;-2.60;76.62;96312.47;10289125;28;2421;-88
2021/03/07 06:50:04;;;;;;;;;;;-1.30;99.90;;;-2.45;76.58;96313.31;10273072;28;1571;-87
2021/03/07 06:55:11;;;;;;;;;;;-1.60;99.90;;;-2.19;76.28;96324.22;10290030;28;2007;-87
2021/03/07 07:00:21;;;;;;;;;;;-1.30;99.90;;;-1.92;75.42;96328.06;10284833;28;2119;-86
2021/03/07 07:05:23;;;;;;;;;;;0.00;99.90;;;-1.78;75.63;96325.59;10294455;28;2093;-89
2021/03/07 07:10:27;;;;;;;;;;;-0.90;99.90;;;-1.60;75.71;96315.47;10289783;28;1886;-87
2021/03/07 07:15:30;;;;;;;;;;;-0.80;99.90;;;-1.38;74.92;96311.09;10292975;28;2082;-88
2021/03/07 07:20:40;;;;;;;;;;;-0.50;99.90;;;-1.23;74.03;96319.78;10305859;28;1895;-87
2021/03/07 07:25:43;;;;;;;;;;;1.80;99.90;;;-1.01;73.59;96306.63;10308466;28;1941;-90
2021/03/07 07:30:46;;;;;;;;;;;-0.10;99.90;;;-0.83;73.66;96296.41;10295317;28;1699;-89
2021/03/07 07:35:49;;;;;;;;;;;0.00;99.90;;;-0.78;72.28;96301.94;10306276;28;1994;-90
2021/03/07 07:40:52;;;;;;;;;;;1.30;99.90;;;-0.60;72.25;96306.78;10304448;28;1922;-91
2021/03/07 07:45:55;;;;;;;;;;;1.10;99.90;;;-0.49;72.30;96302.81;10305116;28;1694;-90
2021/03/07 07:50:59;;;;;;;;;;;2.20;99.90;;;-0.30;72.33;96295.03;10317460;28;1970;-90
2021/03/07 07:56:08;;;;;;;;;;;0.50;99.90;;;-0.18;72.30;96294.50;10316710;28;1693;-90
2021/03/07 08:01:12;;;;;;;;;;;0.70;99.90;;;0.03;71.73;96296.25;10301389;28;1964;-89
2021/03/07 08:06:20;;;;;;;;;;;2.40;99.90;;;0.19;71.73;96285.34;10306287;28;1887;-88
2021/03/07 08:11:26;;;;;;;;;;;1.80;99.90;;;0.54;70.42;96281.63;10304456;28;1835;-88
2021/03/07 08:21:46;;;;;;;;;;;3.20;99.90;;;0.97;68.17;96270.78;10255229;28;1891;-90
2021/03/07 08:26:50;;;;;;;;;;;3.50;99.90;;;1.21;67.92;96279.13;10267147;28;1858;-85
2021/03/07 08:31:57;;;;;;;;;;;2.00;99.90;;;1.45;68.14;96262.63;10281216;28;2144;-89
2021/03/07 08:37:00;;;;;;;;;;;2.50;99.90;;;1.74;67.65;96253.47;10282244;28;2074;-87
2021/03/07 08:42:05;;;;;;;;;;;3.70;99.90;;;1.89;66.81;96245.25;10296624;28;2056;-88
2021/03/07 08:47:07;;;;;;;;;;;4.00;99.90;;;2.13;67.14;96238.47;10273226;28;1893;-88
2021/03/07 08:52:09;;;;;;;;;;;2.90;99.90;;;2.41;66.32;96236.31;10284643;28;2048;-90
2021/03/07 08:57:13;;;;;;;;;;;4.20;99.90;;;2.54;65.55;96238.09;10284456;28;1658;-87
2021/03/07 09:02:15;;;;;;;;;;;3.20;99.90;;;2.74;64.97;96229.25;10279227;28;2150;-89
2021/03/07 09:07:18;;;;;;;;;;;3.50;99.90;;;2.92;63.51;96224.81;10285918;28;1997;-88
2021/03/07 09:12:21;;;;;;;;;;;4.70;99.90;;;3.00;63.11;96218.44;10275047;28;1412;-86
2021/03/07 09:17:25;;;;;;;;;;;3.80;99.90;;;3.05;63.65;96218.59;10294378;28;1564;-86
2021/03/07 09:22:28;;;;;;;;;;;4.40;99.90;;;3.12;62.58;96206.09;10290853;28;2048;-87
2021/03/07 09:27:30;;;;;;;;;;;4.00;99.90;;;3.44;62.73;96206.88;10258699;28;1711;-87
2021/03/07 09:32:32;;;;;;;;;;;4.60;99.90;;;3.70;61.81;96199.69;10276172;28;1961;-88
2021/03/07 09:37:35;;;;;;;;;;;4.40;99.90;;;3.82;61.52;96197.91;10273100;28;2376;-87
2021/03/07 09:42:37;;;;;;;;;;;5.00;99.90;;;4.07;61.54;96187.19;10277103;28;2143;-86
2021/03/07 09:47:54;;;;;;;;;;;6.20;99.90;;;4.27;61.46;96177.13;10306437;28;2090;-90
2021/03/07 09:52:58;;;;;;;;;;;5.10;99.90;;;4.40;60.95;96170.03;10285449;28;1812;-89
2021/03/07 09:58:08;;;;;;;;;;;6.50;99.90;;;4.48;60.97;96167.03;10265017;28;2228;-85
2021/03/07 10:03:10;;;;;;;;;;;6.30;99.90;;;5.15;60.72;96144.53;10256013;28;2050;-88
2021/03/07 10:08:20;;;;;;;;;;;5.60;99.90;;;6.02;57.23;96151.00;10277070;28;1947;-88
2021/03/07 10:13:25;;;;;;;;;;;6.40;98.10;;;5.79;57.28;96141.97;10283679;28;2084;-86
2021/03/07 10:18:32;;;;;;;;;;;7.80;95.80;;;5.72;58.23;96140.44;10295469;28;1942;-87
2021/03/07 10:23:42;;;;;;;;;;;7.20;95.50;;;5.70;58.75;96122.03;10279522;28;1939;-88
2021/03/07 10:28:50;;;;;;;;;;;7.90;96.60;;;5.68;58.93;96124.13;10298743;28;1660;-88
2021/03/07 10:33:57;;;;;;;;;;;7.80;95.90;;;5.81;58.97;96123.06;10299372;28;1812;-86
2021/03/07 10:39:07;;;;;;;;;;;6.80;95.30;;;5.88;57.80;96131.75;10290763;28;1954;-85
2021/03/07 10:55:18;;;;;;;;;;;8.70;95.40;;;5.93;59.86;96103.34;10260572;28;1688;-87
2021/03/07 11:00:34;;;;;;;;;;;6.80;95.20;;;6.37;57.41;96101.00;10278009;28;1970;-87
2021/03/07 11:05:50;;;;;;;;;;;7.10;93.80;;;6.86;57.86;96097.81;10262257;28;2430;-85
2021/03/07 11:11:07;;;;;;;;;;;7.50;93.70;;;7.13;56.79;96084.66;10269536;28;1557;-86
2021/03/07 11:16:44;;;;;;;;;;;9.30;93.40;;;7.63;55.23;96079.19;10269736;28;1921;-83
2021/03/07 11:22:47;;;;;;;;;;;8.90;91.90;;;8.51;53.00;96069.28;10121539;29;2132;-85
2021/03/07 11:34:27;;;;;;;;;;;;;;;;;;;;;
2021/03/07 11:40:25;;;;;;;;;;;10.30;86.10;;;9.69;49.97;96039.59;10007975;29;2029;-86
2021/03/07 11:57:12;;;;;;;;;;;10.30;82.60;;;9.39;51.40;96020.63;10174303;28;2109;-86
2021/03/07 12:02:18;;;;;;;;;;;10.30;83.60;;;9.34;51.82;96009.88;10282392;28;2199;-88
2021/03/07 12:07:25;;;;;;;;;;;10.30;83.00;;;9.03;51.83;95998.94;10287826;28;1587;-86
2021/03/07 12:12:28;;;;;;;;;;;10.10;82.30;;;9.39;49.97;95999.16;10289233;28;2010;-87
2021/03/07 12:17:31;;;;;;;;;;;10.20;81.80;;;8.71;51.07;95996.28;10267084;28;1675;-84
2021/03/07 12:22:40;;;;;;;;;;;9.90;81.20;;;9.23;52.93;95992.94;10286117;28;1976;-84
2021/03/07 12:27:42;;;;;;;;;;;11.10;85.20;;;8.64;52.86;95990.34;10294001;28;2037;-86
2021/03/07 12:32:47;;;;;;;;;;;9.80;82.80;;;8.74;52.97;95979.72;10308906;28;2036;-88
2021/03/07 12:43:08;;;;;;;;;;;9.70;83.40;;;9.00;52.47;95956.56;10256017;28;2252;-87
2021/03/07 12:48:13;;;;;;;;;;;9.70;84.20;;;8.71;53.36;95955.28;10269668;28;1904;-86
2021/03/07 12:53:34;;;;;;;;;;;10.70;83.80;;;8.86;52.58;95937.47;10293947;28;1770;-85
2021/03/07 12:58:40;;;;;;;;;;;9.70;83.20;;;8.33;54.99;95931.16;10295009;28;1907;-86
2021/03/07 13:03:43;;;;;;;;;;;9.40;84.20;;;8.00;56.37;95931.34;10271364;28;1969;-87
2021/03/07 13:08:49;;;;;;;;;;;10.50;86.10;;;7.97;58.14;95918.50;10300992;28;2053;-87
2021/03/07 13:14:03;;;;;;;;;;;9.00;87.30;;;7.98;58.53;95928.94;10277399;28;1743;-88
2021/03/07 13:19:07;;;;;;;;;;;10.30;89.00;;;7.94;58.13;95917.13;10277588;28;2055;-87
2021/03/07 13:24:24;;;;;;;;;;;8.90;88.80;;;7.93;58.94;95915.50;10307707;28;1805;-88
2021/03/07 13:30:02;;;;;;;;;;;8.90;89.50;;;8.00;57.83;95905.41;10320827;28;1577;-89
2021/03/07 13:41:20;;;;;;;;;;;10.30;89.60;;;8.37;57.26;95886.72;10259422;28;1927;-87
2021/03/07 13:46:24;;;;;;;;;;;9.50;88.10;;;8.15;58.63;95882.53;10264203;28;1957;-87
2021/03/07 13:51:38;;;;;;;;;;;10.50;89.20;;;8.11;58.25;95880.34;10301327;28;1894;-88
2021/03/07 13:56:41;;;;;;;;;;;9.40;88.80;;;8.13;57.09;95872.84;10303454;28;2061;-87
2021/03/07 14:01:50;;;;;;;;;;;10.50;88.80;;;8.05;58.55;95864.47;10294678;28;1911;-86
2021/03/07 14:07:02;;;;;;;;;;;9.00;88.50;;;8.00;57.87;95857.22;10271926;28;2014;-85
2021/03/07 14:12:27;;;;;;;;;;;9.30;88.70;;;8.02;58.52;95865.81;10264280;28;1884;-88
2021/03/07 14:17:30;;;;;;;;;;;10.60;89.50;;;7.93;58.52;95845.91;10265672;28;1670;-85
2021/03/07 14:22:33;;;;;;;;;;;9.10;89.20;;;7.82;59.17;95846.88;10277369;28;1899;-87
2021/03/07 14:27:35;;;;;;;;;;;8.80;89.40;;;7.77;59.85;95836.16;10263088;28;2045;-85
2021/03/07 14:32:56;;;;;;;;;;;8.70;89.90;;;7.72;59.42;95833.44;10289460;28;1815;-89
2021/03/07 14:38:09;;;;;;;;;;;8.70;89.70;;;7.56;59.99;95824.44;10263796;28;2065;-87
2021/03/07 14:49:34;;;;;;;;;;;9.60;90.80;;;7.54;60.10;95822.00;10258516;28;1758;-86
2021/03/07 14:55:09;;;;;;;;;;;9.90;90.90;;;7.33;60.19;95817.53;10280588;28;2168;-88
2021/03/07 15:00:27;;;;;;;;;;;9.00;90.80;;;7.18;60.85;95812.00;10285286;28;2055;-85
2021/03/07 15:05:44;;;;;;;;;;;8.20;90.90;;;7.13;61.86;95814.66;10289813;28;1961;-87
2021/03/07 15:10:48;;;;;;;;;;;9.60;92.40;;;7.11;61.90;95814.88;10290088;28;1649;-86
2021/03/07 15:16:00;;;;;;;;;;;8.10;92.30;;;7.13;61.15;95811.97;10271986;28;2077;-86
2021/03/07 15:21:14;;;;;;;;;;;8.70;92.40;;;7.14;62.29;95811.72;10281429;28;2057;-85
2021/03/07 15:26:28;;;;;;;;;;;8.10;92.50;;;7.03;61.68;95805.44;10287188;28;1884;-84
2021/03/07 15:31:48;;;;;;;;;;;9.00;92.50;;;7.21;61.04;95790.13;10277894;28;2032;-85
2021/03/07 15:37:12;;;;;;;;;;;8.50;92.20;;;7.03;62.17;95789.41;10294630;28;2071;-89
2021/03/07 15:42:24;;;;;;;;;;;8.50;92.30;;;7.07;61.62;95783.56;10300797;28;1963;-89
2021/03/07 15:47:28;;;;;;;;;;;9.10;92.70;;;7.04;61.80;95783.00;10307698;28;1901;-88
2021/03/07 15:52:39;;;;;;;;;;;9.30;92.70;;;7.00;62.27;95784.56;10293948;28;1759;-86
2021/03/07 15:57:45;;;;;;;;;;;9.20;93.10;;;7.01;61.63;95788.06;10268152;28;1846;-87
2021/03/07 16:02:53;;;;;;;;;;;8.80;92.40;;;7.08;61.31;95775.28;10284700;28;2018;-87
2021/03/07 16:08:07;;;;;;;;;;;8.00;92.00;;;7.15;61.04;95767.88;10278959;28;2014;-87
2021/03/07 16:13:12;;;;;;;;;;;9.10;92.60;;;7.04;60.27;95769.63;10276924;28;1925;-84
2021/03/07 16:18:17;;;;;;;;;;;9.70;92.10;;;6.94;62.05;95771.41;10282290;28;1906;-86
2021/03/07 16:23:43;;;;;;;;;;;7.90;92.00;;;6.87;61.46;95773.44;10280773;28;1936;-86
2021/03/07 16:28:49;;;;;;;;;;;7.80;91.80;;;6.78;61.72;95771.22;10315392;28;2139;-86
2021/03/07 16:34:03;;;;;;;;;;;8.80;92.30;;;6.70;60.89;95757.50;10321099;28;1238;-86
2021/03/07 16:39:06;;;;;;;;;;;8.30;91.90;;;6.63;61.65;95762.22;10305357;28;2043;-88
2021/03/07 16:44:12;;;;;;;;;;;8.60;92.40;;;6.51;61.38;95757.00;10296126;28;2004;-86
2021/03/07 16:49:35;;;;;;;;;;;7.50;91.30;;;6.39;60.48;95756.31;10276195;28;1998;-87
2021/03/07 16:54:42;;;;;;;;;;;7.50;90.60;;;6.37;61.19;95753.09;10283800;28;1910;-87
2021/03/07 16:59:59;;;;;;;;;;;8.30;91.80;;;6.33;61.10;95747.41;10278230;28;1993;-90
2021/03/07 17:05:05;;;;;;;;;;;8.60;91.80;;;6.18;61.85;95752.56;10288514;28;1974;-87
2021/03/07 17:10:16;;;;;;;;;;;8.00;92.10;;;6.17;62.06;95757.09;10291807;28;1867;-87
2021/03/07 17:21:21;;;;;;;;;;;7.20;92.40;;;6.10;62.32;95768.97;10270070;28;1887;-85
2021/03/07 17:26:40;;;;;;;;;;;7.60;92.50;;;6.01;62.65;95781.13;10265051;28;1909;-83
2021/03/07 17:31:42;;;;;;;;;;;7.10;92.50;;;6.01;61.41;95781.13;10290575;28;1483;-85
2021/03/07 17:36:44;;;;;;;;;;;7.00;91.90;;;5.94;61.68;95798.13;10265013;28;1518;-87
2021/03/07 17:41:46;;;;;;;;;;;7.20;91.80;;;6.00;61.56;95790.19;10265753;28;1907;-87
2021/03/07 17:46:52;;;;;;;;;;;6.90;91.90;;;5.96;61.46;95804.00;10255526;28;1609;-89
2021/03/07 17:52:00;;;;;;;;;;;8.10;92.50;;;5.92;61.89;95800.22;10262062;28;1577;-87
2021/03/07 18:03:32;;;;;;;;;;;7.00;92.50;;;5.75;61.78;95807.38;10242825;28;1922;-89
2021/03/07 18:09:14;;;;;;;;;;;6.80;92.00;;;5.73;61.92;95806.03;10267112;28;1526;-88
2021/03/07 18:20:47;;;;;;;;;;;6.70;91.80;;;5.66;60.54;95806.16;9992225;29;1884;-89
2021/03/07 18:26:08;;;;;;;;;;;7.90;91.20;;;5.66;60.07;95811.47;9992789;29;1582;-85
2021/03/07 18:31:52;;;;;;;;;;;6.60;90.00;;;5.58;61.57;95815.38;10420383;23;1975;-89
2021/03/07 18:37:24;;;;;;;;;;;6.60;90.90;;;5.46;62.60;95811.16;10373787;28;1520;-89
2021/03/07 18:49:38;;;;;;;;;;;7.50;93.60;;;5.35;64.04;95820.84;10304715;28;1467;-86
2021/03/07 18:55:17;;;;;;;;;;;6.80;93.80;;;5.29;62.88;95827.94;10327491;28;1564;-89
2021/03/07 19:11:52;;;;;;;;;;;7.40;96.60;;;4.63;70.53;95839.13;10330937;28;1786;-87
2021/03/07 19:22:52;;;;;;;;;;;5.50;99.90;;;4.32;75.64;95857.91;10312240;28;1957;-89
2021/03/07 19:27:56;;;;;;;;;;;6.30;99.90;;;3.92;82.29;95863.09;10332129;28;1654;-88
2021/03/07 19:32:59;;;;;;;;;;;7.40;99.90;;;3.63;87.32;95856.00;10329526;28;1324;-86
2021/03/07 19:38:04;;;;;;;;;;;4.80;99.90;;;3.53;88.63;95851.22;10341865;28;1604;-87
2021/03/07 19:43:09;;;;;;;;;;;4.50;99.90;;;3.48;90.54;95838.59;10349855;28;1946;-87
2021/03/07 19:48:11;;;;;;;;;;;5.50;99.90;;;3.49;90.83;95834.09;10345848;28;2063;-85
2021/03/07 19:53:17;;;;;;;;;;;5.00;99.90;;;3.45;91.00;95827.63;10322144;28;1756;-87
2021/03/07 19:58:24;;;;;;;;;;;4.30;99.90;;;3.42;91.05;95828.06;10346905;28;1988;-85
2021/03/07 20:03:26;;;;;;;;;;;4.90;99.90;;;3.42;90.94;95825.41;10350274;28;1548;-86
2021/03/07 20:08:29;;;;;;;;;;;6.30;99.90;;;3.47;91.51;95817.59;10330151;28;1724;-88
2021/03/07 20:13:33;;;;;;;;;;;4.40;99.90;;;3.47;91.22;95809.59;10317973;28;1847;-86
2021/03/07 20:18:35;;;;;;;;;;;6.10;99.90;;;3.52;91.59;95807.09;10308666;28;1887;-85
2021/03/07 20:23:40;;;;;;;;;;;5.40;99.90;;;3.55;91.91;95817.25;10310938;28;1308;-85
2021/03/07 20:28:48;;;;;;;;;;;5.10;99.90;;;3.51;91.74;95818.75;10339823;28;1657;-84
2021/03/07 20:33:50;;;;;;;;;;;4.60;99.90;;;3.43;91.34;95813.75;10333533;28;1294;-87
2021/03/07 20:38:52;;;;;;;;;;;4.50;99.90;;;3.27;91.96;95811.75;10330650;28;1891;-86
2021/03/07 20:43:54;;;;;;;;;;;5.40;99.90;;;3.04;91.65;95818.59;10336761;28;1360;-84
2021/03/07 20:48:57;;;;;;;;;;;5.60;99.90;;;2.88;92.33;95821.88;10315291;28;1708;-85
2021/03/07 20:53:59;;;;;;;;;;;6.40;99.90;;;2.76;92.62;95828.97;10320496;28;2075;-84
2021/03/07 20:59:11;;;;;;;;;;;5.70;99.90;;;2.64;93.13;95820.94;10323378;28;1887;-86
2021/03/07 21:04:13;;;;;;;;;;;3.80;99.90;;;2.55;92.94;95832.91;10319211;28;1655;-87
2021/03/07 21:09:15;;;;;;;;;;;4.80;99.90;;;2.52;93.64;95828.84;10342379;28;1629;-87
2021/03/07 21:14:18;;;;;;;;;;;4.70;99.90;;;2.48;93.88;95822.34;10329755;28;1938;-86
2021/03/07 21:19:20;;;;;;;;;;;3.60;99.90;;;2.42;93.94;95829.38;10318175;28;1899;-81
2021/03/07 21:24:21;;;;;;;;;;;5.00;99.90;;;2.39;93.90;95834.28;10312057;28;1943;-82
2021/03/07 21:29:31;;;;;;;;;;;3.60;99.90;;;2.41;94.13;95832.22;10319741;28;2063;-83
2021/03/07 21:34:33;;;;;;;;;;;3.50;99.90;;;2.28;94.51;95832.34;10332526;28;2014;-84
2021/03/07 21:39:35;;;;;;;;;;;5.10;99.90;;;2.13;94.41;95833.53;10322095;28;1940;-83
2021/03/07 21:44:37;;;;;;;;;;;3.30;99.90;;;2.02;94.16;95828.13;10311209;28;2051;-83
2021/03/07 21:49:39;;;;;;;;;;;4.40;99.90;;;1.94;94.40;95831.06;10294591;28;2044;-83
2021/03/07 21:54:41;;;;;;;;;;;4.80;99.90;;;1.89;94.56;95844.97;10307178;28;1961;-83
2021/03/07 21:59:52;;;;;;;;;;;3.00;99.90;;;1.90;94.68;95843.94;10308597;28;1965;-84
2021/03/07 22:04:55;;;;;;;;;;;3.00;99.90;;;1.84;94.92;95842.97;10298893;28;1576;-82
2021/03/07 22:09:57;;;;;;;;;;;3.00;99.90;;;1.85;95.41;95836.66;10301280;28;1305;-85
2021/03/07 22:14:59;;;;;;;;;;;2.90;99.90;;;1.85;95.39;95843.81;10323239;28;1536;-84
2021/03/07 22:20:04;;;;;;;;;;;3.90;99.90;;;1.84;95.52;95842.16;10321806;28;1977;-84
2021/03/07 22:25:06;;;;;;;;;;;2.90;99.90;;;1.86;95.64;95846.22;10313721;28;1740;-83
2021/03/07 22:30:18;;;;;;;;;;;4.50;99.90;;;2.05;96.28;95849.72;10307982;28;1413;-84
2021/03/07 22:35:20;;;;;;;;;;;3.00;99.90;;;2.17;96.51;95853.28;10335823;28;1842;-84
2021/03/07 22:40:22;;;;;;;;;;;3.10;99.90;;;2.25;96.08;95854.84;10319970;28;1904;-82
2021/03/07 22:45:23;;;;;;;;;;;3.50;99.90;;;2.24;95.74;95849.75;10324208;28;2090;-82
2021/03/07 22:50:25;;;;;;;;;;;3.30;99.90;;;2.25;95.34;95852.19;10309035;28;1971;-84
2021/03/07 22:55:27;;;;;;;;;;;4.50;99.90;;;2.26;95.32;95859.13;10297506;28;2058;-83
2021/03/07 23:00:38;;;;;;;;;;;3.70;99.90;;;2.31;95.19;95853.16;10277988;28;2174;-83
2021/03/07 23:05:40;;;;;;;;;;;3.30;99.90;;;2.37;95.28;95841.66;10302320;28;1969;-82
2021/03/07 23:10:42;;;;;;;;;;;5.00;99.90;;;2.32;94.89;95852.94;10298120;28;1994;-83
2021/03/07 23:15:43;;;;;;;;;;;4.20;99.90;;;2.35;94.78;95849.81;10297089;28;2032;-82
2021/03/07 23:20:45;;;;;;;;;;;3.40;99.90;;;2.35;94.57;95843.72;10315738;28;1931;-83
2021/03/07 23:25:47;;;;;;;;;;;3.40;99.90;;;2.43;95.02;95841.59;10310907;28;1674;-83
2021/03/07 23:31:04;;;;;;;;;;;3.40;99.90;;;2.46;95.08;95840.34;10309053;28;2003;-83
2021/03/07 23:36:06;;;;;;;;;;;3.70;99.90;;;2.49;94.54;95839.09;10285033;28;2295;-82
2021/03/07 23:41:07;;;;;;;;;;;3.50;99.90;;;2.48;94.00;95837.44;10295798;28;1998;-82
2021/03/07 23:46:09;;;;;;;;;;;3.50;99.90;;;2.48;93.81;95832.16;10333414;28;1939;-84
2021/03/07 23:51:11;;;;;;;;;;;4.70;99.90;;;2.43;93.68;95838.13;10348141;28;1754;-84
2021/03/07 23:56:13;;;;;;;;;;;3.50;99.90;;;2.42;92.71;95831.22;10355913;28;1955;-81
